createdAt,value
2018-10-18T00:00:23.697Z,29.70
2018-10-18T00:02:52.543Z,29.07
2018-10-18T00:05:21.325Z,31.13
2018-10-18T00:07:50.151Z,31.60
2018-10-18T00:10:18.932Z,30.67
2018-10-18T00:12:47.849Z,31.17
2018-10-18T00:15:16.724Z,30.50
2018-10-18T00:17:47.305Z,30.77
2018-10-18T00:20:17.039Z,30.57
2018-10-18T00:22:46.963Z,30.87
2018-10-18T00:25:16.868Z,30.33
2018-10-18T00:27:45.779Z,29.77
2018-10-18T00:30:16.232Z,31.10
2018-10-18T00:32:45.244Z,31.63
2018-10-18T00:35:14.983Z,32.00
2018-10-18T00:37:50.460Z,31.73
2018-10-18T00:40:19.351Z,30.43
2018-10-18T00:42:48.409Z,30.37
2018-10-18T00:47:56.443Z,32.53
2018-10-18T00:50:25.143Z,31.77
2018-10-18T00:52:53.918Z,32.20
2018-10-18T00:55:22.731Z,32.00
2018-10-18T00:57:51.547Z,33.87
2018-10-18T01:00:20.468Z,33.77
2018-10-18T01:02:49.804Z,33.63
2018-10-18T01:05:18.552Z,32.17
2018-10-18T01:07:48.309Z,33.33
2018-10-18T01:10:17.134Z,34.10
2018-10-18T01:12:46.152Z,34.83
2018-10-18T01:15:15.857Z,33.00
2018-10-18T01:17:44.610Z,32.20
2018-10-18T01:20:15.187Z,31.27
2018-10-18T01:22:43.974Z,32.80
2018-10-18T01:25:13.860Z,32.47
2018-10-18T01:27:42.647Z,34.30
2018-10-18T01:30:11.569Z,32.83
2018-10-18T01:32:40.325Z,32.93
2018-10-18T01:35:09.293Z,32.70
2018-10-18T01:37:38.119Z,32.47
2018-10-18T01:40:06.907Z,32.23
2018-10-18T01:42:36.094Z,31.40
2018-10-18T01:45:05.229Z,32.17
2018-10-18T01:47:34.013Z,31.10
2018-10-18T01:50:02.966Z,31.60
2018-10-18T01:52:31.674Z,31.80
2018-10-18T01:55:01.297Z,32.17
2018-10-18T01:57:30.060Z,32.97
2018-10-18T01:59:58.776Z,30.73
2018-10-18T02:02:27.505Z,31.30
2018-10-18T02:04:56.252Z,30.20
2018-10-18T02:07:24.951Z,30.57
2018-10-18T02:09:53.673Z,31.10
2018-10-18T02:12:22.378Z,30.93
2018-10-18T02:14:51.087Z,30.67
2018-10-18T02:17:19.892Z,30.33
2018-10-18T02:19:48.604Z,30.87
2018-10-18T02:22:17.369Z,31.13
2018-10-18T02:24:51.195Z,31.73
2018-10-18T02:27:19.954Z,32.70
2018-10-18T02:29:55.376Z,32.10
2018-10-18T02:32:24.053Z,31.90
2018-10-18T02:34:52.779Z,32.10
2018-10-18T02:37:21.495Z,32.30
2018-10-18T02:39:50.202Z,32.50
2018-10-18T02:42:18.988Z,41.63
2018-10-18T02:44:47.622Z,39.80
2018-10-18T02:47:16.397Z,45.30
2018-10-18T02:49:45.107Z,36.07
2018-10-18T02:52:13.950Z,36.47
2018-10-18T02:54:42.671Z,35.93
2018-10-18T02:57:11.388Z,35.47
2018-10-18T02:59:40.122Z,34.53
2018-10-18T03:02:09.332Z,33.60
2018-10-18T03:04:38.360Z,35.90
2018-10-18T03:07:07.200Z,35.00
2018-10-18T03:09:35.915Z,34.40
2018-10-18T03:12:05.070Z,40.40
2018-10-18T03:14:33.733Z,38.83
2018-10-18T03:17:02.474Z,44.00
2018-10-18T03:19:31.234Z,33.47
2018-10-18T03:21:59.974Z,33.23
2018-10-18T03:24:28.749Z,33.50
2018-10-18T03:26:57.448Z,36.43
2018-10-18T03:29:26.161Z,35.03
2018-10-18T03:31:54.929Z,36.63
2018-10-18T03:34:23.673Z,34.47
2018-10-18T03:36:52.397Z,34.83
2018-10-18T03:39:21.145Z,36.37
2018-10-18T03:41:49.943Z,36.77
2018-10-18T03:44:18.768Z,36.67
2018-10-18T03:46:47.730Z,37.30
2018-10-18T03:49:16.558Z,37.77
2018-10-18T03:51:45.286Z,37.90
2018-10-18T03:54:14.141Z,36.63
2018-10-18T03:56:42.882Z,35.83
2018-10-18T03:59:11.615Z,35.60
2018-10-18T04:01:40.315Z,37.47
2018-10-18T04:04:09.068Z,35.97
2018-10-18T04:06:37.920Z,37.13
2018-10-18T04:09:08.455Z,36.90
2018-10-18T04:11:37.283Z,37.23
2018-10-18T04:14:06.299Z,37.13
2018-10-18T04:16:35.089Z,37.50
2018-10-18T04:19:03.810Z,36.57
2018-10-18T04:21:32.535Z,36.57
2018-10-18T04:24:01.313Z,39.13
2018-10-18T04:26:29.997Z,38.27
2018-10-18T04:28:58.705Z,39.70
2018-10-18T04:31:27.404Z,39.90
2018-10-18T04:33:56.139Z,39.77
2018-10-18T04:36:24.877Z,40.80
2018-10-18T04:38:53.601Z,39.87
2018-10-18T04:41:22.346Z,39.47
2018-10-18T04:43:51.092Z,41.10
2018-10-18T04:46:19.924Z,39.13
2018-10-18T04:48:48.810Z,38.93
2018-10-18T04:51:17.578Z,39.53
2018-10-18T04:53:46.953Z,40.57
2018-10-18T04:56:16.228Z,40.17
2018-10-18T04:58:44.956Z,41.13
2018-10-18T05:01:13.768Z,39.70
2018-10-18T05:03:42.467Z,41.60
2018-10-18T05:06:11.174Z,39.87
2018-10-18T05:08:39.875Z,41.00
2018-10-18T05:11:08.643Z,41.07
2018-10-18T05:13:37.348Z,41.23
2018-10-18T05:16:06.152Z,42.27
2018-10-18T05:18:34.900Z,41.60
2018-10-18T05:21:03.691Z,41.57
2018-10-18T05:23:32.407Z,45.13
2018-10-18T05:26:01.123Z,45.30
2018-10-18T05:28:29.878Z,45.43
2018-10-18T05:30:58.924Z,44.43
2018-10-18T05:33:27.662Z,49.97
2018-10-18T05:35:56.395Z,49.97
2018-10-18T05:38:25.210Z,47.90
2018-10-18T05:40:54.270Z,50.20
2018-10-18T05:43:23.864Z,49.47
2018-10-18T05:45:53.429Z,49.73
2018-10-18T05:48:22.191Z,50.40
2018-10-18T05:50:50.859Z,49.47
2018-10-18T05:53:19.654Z,48.93
2018-10-18T05:55:48.343Z,48.77
2018-10-18T05:58:17.059Z,48.83
2018-10-18T06:00:45.809Z,47.53
2018-10-18T06:03:14.647Z,45.17
2018-10-18T06:05:43.370Z,46.23
2018-10-18T06:08:12.076Z,47.43
2018-10-18T06:10:52.231Z,47.77
2018-10-18T06:13:20.973Z,44.50
2018-10-18T06:15:49.686Z,43.80
2018-10-18T06:18:18.382Z,43.13
2018-10-18T06:20:47.241Z,48.60
2018-10-18T06:23:16.129Z,48.40
2018-10-18T06:25:44.785Z,45.80
2018-10-18T06:28:13.548Z,42.87
2018-10-18T06:30:42.274Z,44.33
2018-10-18T06:33:11.004Z,44.97
2018-10-18T06:35:39.730Z,41.53
2018-10-18T06:38:08.483Z,42.83
2018-10-18T06:40:37.256Z,39.47
2018-10-18T06:43:06.071Z,40.10
2018-10-18T06:45:34.822Z,41.27
2018-10-18T06:48:03.570Z,40.37
2018-10-18T06:50:32.398Z,40.43
2018-10-18T06:53:01.306Z,40.23
2018-10-18T06:55:30.057Z,40.10
2018-10-18T06:57:58.757Z,39.47
2018-10-18T07:00:27.539Z,44.10
2018-10-18T07:02:56.206Z,40.50
2018-10-18T07:05:24.942Z,40.53
2018-10-18T07:07:54.560Z,42.77
2018-10-18T07:10:23.252Z,47.23
2018-10-18T07:12:51.978Z,40.83
2018-10-18T07:15:20.732Z,40.13
2018-10-18T07:17:49.533Z,39.90
2018-10-18T07:20:23.233Z,39.07
2018-10-18T07:22:52.132Z,41.00
2018-10-18T07:25:20.930Z,40.37
2018-10-18T07:27:49.673Z,39.13
2018-10-18T07:30:18.471Z,40.27
2018-10-18T07:32:47.219Z,40.77
2018-10-18T07:35:16.157Z,38.27
2018-10-18T07:37:44.926Z,39.07
2018-10-18T07:40:15.065Z,40.93
2018-10-18T07:42:43.840Z,41.23
2018-10-18T07:45:13.509Z,42.20
2018-10-18T07:47:42.866Z,42.80
2018-10-18T07:50:12.169Z,39.57
2018-10-18T07:52:40.958Z,43.13
2018-10-18T07:55:10.424Z,43.53
2018-10-18T07:57:39.791Z,44.77
2018-10-18T08:00:10.729Z,43.77
2018-10-18T08:02:39.664Z,44.90
2018-10-18T08:05:08.970Z,43.67
2018-10-18T08:07:37.970Z,45.37
2018-10-18T08:10:10.120Z,47.27
2018-10-18T08:12:38.991Z,44.47
2018-10-18T08:15:08.526Z,43.90
2018-10-18T08:17:37.228Z,44.43
2018-10-18T08:20:06.739Z,45.93
2018-10-18T08:22:35.572Z,46.37
2018-10-18T08:25:04.403Z,46.20
2018-10-18T08:27:34.765Z,45.37
2018-10-18T08:30:04.320Z,46.63
2018-10-18T08:32:33.089Z,46.47
2018-10-18T08:35:01.822Z,44.47
2018-10-18T08:37:30.604Z,45.87
2018-10-18T08:39:59.299Z,45.00
2018-10-18T08:42:28.019Z,44.83
2018-10-18T08:44:57.157Z,43.53
2018-10-18T08:47:25.487Z,44.03
2018-10-18T08:49:54.398Z,45.00
2018-10-18T08:52:24.717Z,43.80
2018-10-18T08:54:55.463Z,41.90
2018-10-18T08:57:24.139Z,43.50
2018-10-18T08:59:52.852Z,43.77
2018-10-18T09:02:22.090Z,42.17
2018-10-18T09:04:51.697Z,41.70
2018-10-18T09:07:20.766Z,42.40
2018-10-18T09:09:50.533Z,42.23
2018-10-18T09:12:19.376Z,43.20
2018-10-18T09:14:48.069Z,44.27
2018-10-18T09:17:16.793Z,41.07
2018-10-18T09:19:45.535Z,43.10
2018-10-18T09:22:14.315Z,46.03
2018-10-18T09:24:43.019Z,42.27
2018-10-18T09:27:11.849Z,44.43
2018-10-18T09:29:40.573Z,43.83
2018-10-18T09:32:09.522Z,40.57
2018-10-18T09:34:38.417Z,42.73
2018-10-18T09:37:07.313Z,42.47
2018-10-18T09:39:35.992Z,42.90
2018-10-18T09:42:05.537Z,41.67
2018-10-18T09:44:34.358Z,39.43
2018-10-18T09:47:03.136Z,38.93
2018-10-18T09:49:31.870Z,38.53
2018-10-18T09:52:00.651Z,38.90
2018-10-18T09:54:29.392Z,40.37
2018-10-18T09:56:58.139Z,39.13
2018-10-18T09:59:26.884Z,41.77
2018-10-18T10:02:01.036Z,42.90
2018-10-18T10:04:29.898Z,41.80
2018-10-18T10:06:58.663Z,44.80
2018-10-18T10:09:27.403Z,42.17
2018-10-18T10:11:56.181Z,42.07
2018-10-18T10:14:24.941Z,41.47
2018-10-18T10:16:53.644Z,43.13
2018-10-18T10:19:23.118Z,40.47
2018-10-18T10:21:52.297Z,42.10
2018-10-18T10:24:22.119Z,42.77
2018-10-18T10:26:52.085Z,40.03
2018-10-18T10:29:21.010Z,41.20
2018-10-18T10:31:56.475Z,42.67
2018-10-18T10:34:25.276Z,38.83
2018-10-18T10:36:54.012Z,40.17
2018-10-18T10:39:22.751Z,39.73
2018-10-18T10:41:51.641Z,39.37
2018-10-18T10:44:21.101Z,38.40
2018-10-18T10:46:49.883Z,38.93
2018-10-18T10:49:18.734Z,39.93
2018-10-18T10:51:47.603Z,37.17
2018-10-18T10:54:17.352Z,35.77
2018-10-18T10:56:46.068Z,36.17
2018-10-18T10:59:19.160Z,36.03
2018-10-18T11:01:47.871Z,34.47
2018-10-18T11:04:16.717Z,33.60
2018-10-18T11:06:45.577Z,34.30
2018-10-18T11:09:15.880Z,35.00
2018-10-18T11:11:49.191Z,34.27
2018-10-18T11:14:18.654Z,32.73
2018-10-18T11:16:47.419Z,34.20
2018-10-18T11:19:16.230Z,33.97
2018-10-18T11:21:44.963Z,34.73
2018-10-18T11:24:13.763Z,36.20
2018-10-18T11:26:42.410Z,35.50
2018-10-18T11:29:11.185Z,36.80
2018-10-18T11:31:39.985Z,39.20
2018-10-18T11:34:08.732Z,33.60
2018-10-18T11:36:37.443Z,33.77
2018-10-18T11:39:07.899Z,35.77
2018-10-18T11:41:37.724Z,35.13
2018-10-18T11:44:06.816Z,34.93
2018-10-18T11:46:36.091Z,36.47
2018-10-18T11:49:06.416Z,36.80
2018-10-18T11:51:35.344Z,37.57
2018-10-18T11:54:03.997Z,36.40
2018-10-18T11:56:33.217Z,34.87
2018-10-18T11:59:02.139Z,34.10
2018-10-18T12:01:30.875Z,34.43
2018-10-18T12:03:59.672Z,34.97
2018-10-18T12:06:28.716Z,33.87
2018-10-18T12:08:57.521Z,34.60
2018-10-18T12:11:26.232Z,34.43
2018-10-18T12:13:57.011Z,33.20
2018-10-18T12:16:31.271Z,33.70
2018-10-18T12:19:00.033Z,33.40
2018-10-18T12:21:28.736Z,32.20
2018-10-18T12:24:03.189Z,29.93
2018-10-18T12:26:32.344Z,29.00
2018-10-18T12:29:01.163Z,27.73
2018-10-18T12:31:30.504Z,28.37
2018-10-18T12:33:59.234Z,26.37
2018-10-18T12:36:30.278Z,25.30
2018-10-18T12:39:01.274Z,22.83
2018-10-18T12:41:32.022Z,22.13
2018-10-18T12:44:01.836Z,21.73
2018-10-18T12:46:32.923Z,20.27
2018-10-18T12:49:02.419Z,18.87
2018-10-18T12:51:31.137Z,19.20
2018-10-18T12:53:59.877Z,19.20
2018-10-18T12:56:28.555Z,18.40
2018-10-18T12:58:58.312Z,20.87
2018-10-18T13:01:32.216Z,19.83
2018-10-18T13:04:01.000Z,20.33
2018-10-18T13:06:29.717Z,19.20
2018-10-18T13:09:03.578Z,17.47
2018-10-18T13:11:34.129Z,17.37
2018-10-18T13:14:05.854Z,17.93
2018-10-18T13:16:36.208Z,16.87
2018-10-18T13:19:07.768Z,18.40
2018-10-18T13:21:36.514Z,17.63
2018-10-18T13:24:05.629Z,14.83
2018-10-18T13:26:34.841Z,13.63
2018-10-18T13:29:03.530Z,13.13
2018-10-18T13:31:32.240Z,13.47
2018-10-18T13:34:00.998Z,12.60
2018-10-18T13:36:29.995Z,12.17
2018-10-18T13:39:06.374Z,14.80
2018-10-18T13:41:35.474Z,13.77
2018-10-18T13:44:04.407Z,14.03
2018-10-18T13:46:34.169Z,13.43
2018-10-18T13:49:02.994Z,12.17
2018-10-18T13:51:31.911Z,11.53
2018-10-18T13:54:00.767Z,11.37
2018-10-18T13:59:17.471Z,9.50
2018-10-18T14:01:46.065Z,9.30
2018-10-18T14:04:15.114Z,8.70
2018-10-18T14:06:43.879Z,8.17
2018-10-18T14:09:12.662Z,10.03
2018-10-18T14:11:41.512Z,13.27
2018-10-18T14:14:10.348Z,10.87
2018-10-18T14:16:39.106Z,7.73
2018-10-18T14:19:08.316Z,9.37
2018-10-18T14:21:37.087Z,7.53
2018-10-18T14:24:06.651Z,9.50
2018-10-18T14:26:35.422Z,6.70
2018-10-18T14:29:04.747Z,7.67
2018-10-18T14:31:33.533Z,8.03
2018-10-18T14:34:02.817Z,6.57
2018-10-18T14:36:31.665Z,11.17
2018-10-18T14:39:00.572Z,22.03
2018-10-18T14:41:29.363Z,16.63
2018-10-18T14:43:58.742Z,8.37
2018-10-18T14:46:27.646Z,5.43
2018-10-18T14:48:56.491Z,6.50
2018-10-18T14:51:25.885Z,14.00
2018-10-18T14:53:54.681Z,7.50
2018-10-18T14:56:25.393Z,4.93
2018-10-18T14:58:56.031Z,4.47
2018-10-18T15:01:29.866Z,4.47
2018-10-18T15:03:59.076Z,4.07
2018-10-18T15:06:27.861Z,4.70
2018-10-18T15:08:59.703Z,22.90
2018-10-18T15:11:31.645Z,24.57
2018-10-18T15:14:01.909Z,9.70
2018-10-18T15:16:30.800Z,3.90
2018-10-18T15:18:59.654Z,4.03
2018-10-18T15:21:28.463Z,3.03
2018-10-18T15:23:57.532Z,4.27
2018-10-18T15:26:26.529Z,4.80
2018-10-18T15:28:55.288Z,3.93
2018-10-18T15:31:24.071Z,3.40
2018-10-18T15:33:53.388Z,4.23
2018-10-18T15:36:23.835Z,4.97
2018-10-18T15:38:52.866Z,4.60
2018-10-18T15:41:21.489Z,2.83
2018-10-18T15:43:50.361Z,3.80
2018-10-18T15:46:20.423Z,4.10
2018-10-18T15:48:49.214Z,3.10
2018-10-18T15:51:18.567Z,3.20
2018-10-18T15:53:47.456Z,3.00
2018-10-18T15:56:16.462Z,3.03
2018-10-18T15:58:45.252Z,3.63
2018-10-18T16:01:14.402Z,6.10
2018-10-18T16:03:43.390Z,4.93
2018-10-18T16:06:12.582Z,4.63
2018-10-18T16:08:43.555Z,4.00
2018-10-18T16:11:14.496Z,3.93
2018-10-18T16:13:43.285Z,4.70
2018-10-18T16:16:12.404Z,4.70
2018-10-18T16:18:41.251Z,5.17
2018-10-18T16:21:10.067Z,4.70
2018-10-18T16:23:39.376Z,4.37
2018-10-18T16:26:08.611Z,3.90
2018-10-18T16:28:37.367Z,3.60
2018-10-18T16:31:06.138Z,3.40
2018-10-18T16:33:35.199Z,3.50
2018-10-18T16:36:03.916Z,3.60
2018-10-18T16:38:33.001Z,3.33
2018-10-18T16:41:02.517Z,3.33
2018-10-18T16:43:32.506Z,3.53
2018-10-18T16:46:03.681Z,4.23
2018-10-18T16:48:36.626Z,4.53
2018-10-18T16:51:05.679Z,3.80
2018-10-18T16:53:34.648Z,3.57
2018-10-18T16:56:03.811Z,4.00
2018-10-18T16:58:33.562Z,5.50
2018-10-18T17:01:02.323Z,3.93
2018-10-18T17:03:31.108Z,5.10
2018-10-18T17:05:59.900Z,3.73
2018-10-18T17:08:28.661Z,3.00
2018-10-18T17:10:57.584Z,2.70
2018-10-18T17:13:26.504Z,2.37
2018-10-18T17:15:56.111Z,2.43
2018-10-18T17:18:27.589Z,2.70
2018-10-18T17:20:59.091Z,3.83
2018-10-18T17:23:29.254Z,2.80
2018-10-18T17:25:58.162Z,2.93
2018-10-18T17:28:29.760Z,3.67
2018-10-18T17:30:58.880Z,3.07
2018-10-18T17:33:28.281Z,2.50
2018-10-18T17:35:57.271Z,3.40
2018-10-18T17:38:26.714Z,4.27
2018-10-18T17:40:55.456Z,4.10
2018-10-18T17:43:24.222Z,4.57
2018-10-18T17:45:53.019Z,3.80
2018-10-18T17:48:21.731Z,3.20
2018-10-18T17:50:50.527Z,4.40
2018-10-18T17:53:19.347Z,3.80
2018-10-18T17:55:48.135Z,2.70
2018-10-18T17:58:17.057Z,3.93
2018-10-18T18:00:46.105Z,4.70
2018-10-18T18:03:14.824Z,3.60
2018-10-18T18:05:43.595Z,3.73
2018-10-18T18:08:12.332Z,3.50
2018-10-18T18:10:41.039Z,4.00
2018-10-18T18:13:09.790Z,5.83
2018-10-18T18:15:38.540Z,4.90
2018-10-18T18:18:07.299Z,3.60
2018-10-18T18:20:36.007Z,4.10
2018-10-18T18:23:05.281Z,4.93
2018-10-18T18:25:34.008Z,4.10
2018-10-18T18:28:03.276Z,5.67
2018-10-18T18:30:32.049Z,4.10
2018-10-18T18:33:00.777Z,4.97
2018-10-18T18:35:29.519Z,5.17
2018-10-18T18:37:58.358Z,13.33
2018-10-18T18:40:27.081Z,7.70
2018-10-18T18:42:56.004Z,6.63
2018-10-18T18:45:29.063Z,8.43
2018-10-18T18:47:57.758Z,5.93
2018-10-18T18:50:26.689Z,10.90
2018-10-18T18:52:55.537Z,14.93
2018-10-18T18:55:24.313Z,9.23
2018-10-18T18:57:53.040Z,5.40
2018-10-18T19:00:21.867Z,4.63
2018-10-18T19:02:50.470Z,3.43
2018-10-18T19:05:19.227Z,3.80
2018-10-18T19:07:47.939Z,5.23
2018-10-18T19:10:16.640Z,3.60
2018-10-18T19:12:45.480Z,4.80
2018-10-18T19:15:14.541Z,5.33
2018-10-18T19:17:43.156Z,5.27
2018-10-18T19:20:11.883Z,4.37
2018-10-18T19:22:40.757Z,5.77
2018-10-18T19:25:09.483Z,4.70
2018-10-18T19:27:43.220Z,5.20
2018-10-18T19:30:12.383Z,4.00
2018-10-18T19:32:41.166Z,4.53
2018-10-18T19:35:09.886Z,4.07
2018-10-18T19:37:38.611Z,11.23
2018-10-18T19:40:07.847Z,5.60
2018-10-18T19:42:36.654Z,4.23
2018-10-18T19:45:06.584Z,6.70
2018-10-18T19:47:35.356Z,4.93
2018-10-18T19:50:04.313Z,4.00
2018-10-18T19:55:09.076Z,4.50
2018-10-18T19:57:38.162Z,4.87
2018-10-18T20:00:08.036Z,4.70
2018-10-18T20:02:37.081Z,8.37
2018-10-18T20:05:06.410Z,7.33
2018-10-18T20:07:35.803Z,5.70
2018-10-18T20:10:04.853Z,5.40
2018-10-18T20:12:33.583Z,9.87
2018-10-18T20:15:02.363Z,13.33
2018-10-18T20:17:31.070Z,8.97
2018-10-18T20:19:59.822Z,10.77
2018-10-18T20:22:28.614Z,18.87
2018-10-18T20:24:57.447Z,14.50
2018-10-18T20:27:26.078Z,8.30
2018-10-18T20:29:54.834Z,3.80
2018-10-18T20:32:23.588Z,3.70
2018-10-18T20:37:27.603Z,4.37
2018-10-18T20:39:56.569Z,4.70
2018-10-18T20:42:25.109Z,8.23
2018-10-18T20:44:53.829Z,6.70
2018-10-18T20:47:22.639Z,4.53
2018-10-18T20:49:51.297Z,4.70
2018-10-18T20:52:20.142Z,4.17
2018-10-18T20:54:48.971Z,3.80
2018-10-18T20:57:24.457Z,3.67
2018-10-18T20:59:53.271Z,3.73
2018-10-18T21:02:22.081Z,4.23
2018-10-18T21:04:50.811Z,4.30
2018-10-18T21:07:19.719Z,3.47
2018-10-18T21:09:49.315Z,3.30
2018-10-18T21:12:18.627Z,27.83
2018-10-18T21:14:48.157Z,15.13
2018-10-18T21:17:17.159Z,5.77
2018-10-18T21:19:46.142Z,4.60
2018-10-18T21:22:14.856Z,4.10
2018-10-18T21:24:43.578Z,3.57
2018-10-18T21:27:12.414Z,3.33
2018-10-18T21:29:41.091Z,3.60
2018-10-18T21:32:09.917Z,4.00
2018-10-18T21:34:38.699Z,3.20
2018-10-18T21:37:07.579Z,3.40
2018-10-18T21:39:36.652Z,3.60
2018-10-18T21:42:05.664Z,3.40
2018-10-18T21:44:36.560Z,4.40
2018-10-18T21:47:05.479Z,3.97
2018-10-18T21:49:34.173Z,3.60
2018-10-18T21:52:02.936Z,3.10
2018-10-18T21:54:31.671Z,3.87
2018-10-18T21:57:00.558Z,3.23
2018-10-18T21:59:29.481Z,3.30
2018-10-18T22:01:58.276Z,3.80
2018-10-18T22:04:27.067Z,3.30
2018-10-18T22:06:55.829Z,3.80
2018-10-18T22:09:24.704Z,3.33
2018-10-18T22:11:53.483Z,3.53
2018-10-18T22:14:22.291Z,3.70
2018-10-18T22:16:50.990Z,3.27
2018-10-18T22:19:19.700Z,3.10
2018-10-18T22:21:48.517Z,3.10
2018-10-18T22:24:17.252Z,3.43
2018-10-18T22:26:46.111Z,3.33
2018-10-18T22:29:14.913Z,3.40
2018-10-18T22:31:43.687Z,3.80
2018-10-18T22:34:13.437Z,4.63
2018-10-18T22:36:42.138Z,3.80
2018-10-18T22:39:11.778Z,3.50
2018-10-18T22:41:40.939Z,3.60
2018-10-18T22:44:10.407Z,3.77
2018-10-18T22:46:39.164Z,3.30
2018-10-18T22:49:07.903Z,3.07
2018-10-18T22:51:36.785Z,5.83
2018-10-18T22:54:05.760Z,23.23
2018-10-18T22:56:34.605Z,12.33
2018-10-18T22:59:03.415Z,5.50
2018-10-18T23:01:32.160Z,3.30
2018-10-18T23:04:00.924Z,3.13
2018-10-18T23:06:29.695Z,3.00
2018-10-18T23:08:58.472Z,3.03
2018-10-18T23:11:27.223Z,2.97
2018-10-18T23:13:55.988Z,3.13
2018-10-18T23:16:24.764Z,2.93
2018-10-18T23:18:53.495Z,2.43
2018-10-18T23:21:25.452Z,2.37
2018-10-18T23:24:08.049Z,2.47
2018-10-18T23:26:37.439Z,2.30
2018-10-18T23:29:06.374Z,2.77
2018-10-18T23:31:35.081Z,2.87
2018-10-18T23:34:03.802Z,2.00
2018-10-18T23:36:32.570Z,2.23
2018-10-18T23:39:01.434Z,2.47
2018-10-18T23:41:30.104Z,2.10
2018-10-18T23:43:59.137Z,2.20
2018-10-18T23:46:27.928Z,2.47
2018-10-18T23:48:56.924Z,2.37
2018-10-18T23:54:02.715Z,2.13
2018-10-18T23:56:31.490Z,2.00
2018-10-18T23:59:00.293Z,2.03
